sensor_id;sensor_type;location;lat;lon;timestamp;pressure;altitude;pressure_sealevel;temperature;humidity
44001;BME280;29660;42.892;24.710;2023-04-07T00:05:14;96721.19;;;4.66;56.74
44001;BME280;29660;42.892;24.710;2023-04-07T00:10:37;96684.47;;;4.22;58.14
44001;BME280;29660;42.892;24.710;2023-04-07T00:15:59;96747.81;;;4.59;61.51
44001;BME280;29660;42.892;24.710;2023-04-07T00:21:21;96707.47;;;4.27;61.83
44001;BME280;29660;42.892;24.710;2023-04-07T00:26:44;96225.91;;;1.12;62.59
44001;BME280;29660;42.892;24.710;2023-04-07T00:32:06;96668.19;;;3.93;61.28
44001;BME280;29660;42.892;24.710;2023-04-07T00:37:28;96445.47;;;2.40;61.28
44001;BME280;29660;42.892;24.710;2023-04-07T00:42:51;96428.69;;;1.97;63.16
44001;BME280;29660;42.892;24.710;2023-04-07T00:48:13;96722.84;;;3.71;63.60
44001;BME280;29660;42.892;24.710;2023-04-07T00:53:35;96428.25;;;1.61;66.10
44001;BME280;29660;42.892;24.710;2023-04-07T00:58:58;96416.94;;;1.39;67.26
44001;BME280;29660;42.892;24.710;2023-04-07T01:04:26;96740.06;;;3.29;68.16
44001;BME280;29660;42.892;24.710;2023-04-07T01:10:04;96171.97;;;-0.34;68.52
44001;BME280;29660;42.892;24.710;2023-04-07T01:15:38;96468.84;;;1.32;70.90
44001;BME280;29660;42.892;24.710;2023-04-07T01:21:10;96679.59;;;2.52;71.10
44001;BME280;29660;42.892;24.710;2023-04-07T01:26:36;96549.38;;;1.60;70.75
44001;BME280;29660;42.892;24.710;2023-04-07T01:32:01;96432.88;;;0.65;69.97
44001;BME280;29660;42.892;24.710;2023-04-07T01:37:25;96454.97;;;0.52;73.65
44001;BME280;29660;42.892;24.710;2023-04-07T01:42:48;96646.22;;;1.68;73.69
44001;BME280;29660;42.892;24.710;2023-04-07T01:48:12;96671.59;;;1.74;74.63
44001;BME280;29660;42.892;24.710;2023-04-07T01:53:34;96616.06;;;1.08;76.72
44001;BME280;29660;42.892;24.710;2023-04-07T01:59:00;96619.63;;;1.02;76.54
44001;BME280;29660;42.892;24.710;2023-04-07T02:10:10;96729.84;;;1.54;81.03
44001;BME280;29660;42.892;24.710;2023-04-07T02:15:35;96728.94;;;1.48;81.86
44001;BME280;29660;42.892;24.710;2023-04-07T02:20:59;96709.53;;;1.21;83.75
44001;BME280;29660;42.892;24.710;2023-04-07T02:26:23;96400.19;;;-0.94;83.83
44001;BME280;29660;42.892;24.710;2023-04-07T02:31:45;96706.84;;;1.04;86.97
44001;BME280;29660;42.892;24.710;2023-04-07T02:37:07;96709.53;;;0.81;87.82
44001;BME280;29660;42.892;24.710;2023-04-07T02:42:29;96504.94;;;-0.47;88.87
44001;BME280;29660;42.892;24.710;2023-04-07T02:47:52;96376.84;;;-1.19;87.27
44001;BME280;29660;42.892;24.710;2023-04-07T02:53:14;96404.06;;;-1.08;88.64
44001;BME280;29660;42.892;24.710;2023-04-07T02:58:37;96712.38;;;0.91;87.72
44001;BME280;29660;42.892;24.710;2023-04-07T03:04:00;96460.28;;;-0.76;88.21
44001;BME280;29660;42.892;24.710;2023-04-07T03:09:22;96707.47;;;0.83;88.41
44001;BME280;29660;42.892;24.710;2023-04-07T03:14:45;96324.88;;;-1.62;89.82
44001;BME280;29660;42.892;24.710;2023-04-07T03:20:08;96397.09;;;-1.03;88.64
44001;BME280;29660;42.892;24.710;2023-04-07T03:25:32;96730.47;;;1.04;90.22
44001;BME280;29660;42.892;24.710;2023-04-07T03:30:56;96730.94;;;1.01;89.52
44001;BME280;29660;42.892;24.710;2023-04-07T03:36:18;96446.19;;;-0.98;91.06
44001;BME280;29660;42.892;24.710;2023-04-07T03:41:43;96481.81;;;-0.73;89.95
44001;BME280;29660;42.892;24.710;2023-04-07T03:47:06;96745.25;;;0.82;92.41
44001;BME280;29660;42.892;24.710;2023-04-07T03:52:31;96315.03;;;-2.02;91.17
44001;BME280;29660;42.892;24.710;2023-04-07T03:58:02;96738.88;;;0.66;93.58
44001;BME280;29660;42.892;24.710;2023-04-07T04:03:28;96675.47;;;0.22;94.36
44001;BME280;29660;42.892;24.710;2023-04-07T04:09:01;96689.72;;;0.38;94.13
44001;BME280;29660;42.892;24.710;2023-04-07T04:14:27;96755.41;;;0.78;93.98
44001;BME280;29660;42.892;24.710;2023-04-07T04:19:53;96758.50;;;0.75;93.80
44001;BME280;29660;42.892;24.710;2023-04-07T04:25:29;96539.06;;;-0.54;92.92
44001;BME280;29660;42.892;24.710;2023-04-07T04:30:52;96496.91;;;-0.99;93.54
44001;BME280;29660;42.892;24.710;2023-04-07T04:36:16;96499.19;;;-0.91;94.10
44001;BME280;29660;42.892;24.710;2023-04-07T04:41:56;96462.78;;;-0.92;92.20
44001;BME280;29660;42.892;24.710;2023-04-07T04:47:25;96507.75;;;-0.60;91.14
44001;BME280;29660;42.892;24.710;2023-04-07T04:52:48;96583.19;;;-0.27;92.08
44001;BME280;29660;42.892;24.710;2023-04-07T04:58:15;96497.38;;;-0.79;93.88
44001;BME280;29660;42.892;24.710;2023-04-07T05:03:41;96782.59;;;1.36;91.94
44001;BME280;29660;42.892;24.710;2023-04-07T05:09:15;96525.38;;;-0.20;92.03
44001;BME280;29660;42.892;24.710;2023-04-07T05:14:40;96814.00;;;1.71;90.76
44001;BME280;29660;42.892;24.710;2023-04-07T05:20:03;96787.75;;;1.88;87.74
44001;BME280;29660;42.892;24.710;2023-04-07T05:25:31;96656.06;;;1.27;85.51
44001;BME280;29660;42.892;24.710;2023-04-07T05:30:57;96796.88;;;2.47;85.15
44001;BME280;29660;42.892;24.710;2023-04-07T05:36:23;96801.75;;;2.73;84.04
44001;BME280;29660;42.892;24.710;2023-04-07T05:41:50;96518.66;;;1.10;79.38
44001;BME280;29660;42.892;24.710;2023-04-07T05:47:31;96482.28;;;1.35;75.33
44001;BME280;29660;42.892;24.710;2023-04-07T05:52:54;96769.66;;;3.58;73.85
44001;BME280;29660;42.892;24.710;2023-04-07T05:58:20;96490.16;;;2.13;69.76
44001;BME280;29660;42.892;24.710;2023-04-07T06:03:45;96472.81;;;2.39;66.42
44001;BME280;29660;42.892;24.710;2023-04-07T06:09:15;96480.56;;;2.78;65.19
44001;BME280;29660;42.892;24.710;2023-04-07T06:14:37;96475.91;;;3.17;61.98
44001;BME280;29660;42.892;24.710;2023-04-07T06:20:00;96483.81;;;3.54;60.27
44001;BME280;29660;42.892;24.710;2023-04-07T06:25:22;96702.44;;;5.25;55.07
44001;BME280;29660;42.892;24.710;2023-04-07T06:30:44;96524.91;;;4.45;50.42
44001;BME280;29660;42.892;24.710;2023-04-07T06:36:08;96750.53;;;6.00;48.68
44001;BME280;29660;42.892;24.710;2023-04-07T06:41:31;96711.34;;;6.23;47.40
44001;BME280;29660;42.892;24.710;2023-04-07T06:46:53;96728.28;;;6.57;45.56
44001;BME280;29660;42.892;24.710;2023-04-07T06:52:16;96755.19;;;7.16;45.59
44001;BME280;29660;42.892;24.710;2023-04-07T06:57:38;96552.78;;;6.11;43.69
44001;BME280;29660;42.892;24.710;2023-04-07T07:03:00;96710.53;;;7.38;44.95
44001;BME280;29660;42.892;24.710;2023-04-07T07:08:24;96740.50;;;7.88;42.56
44001;BME280;29660;42.892;24.710;2023-04-07T07:13:46;96691.25;;;7.72;41.77
44001;BME280;29660;42.892;24.710;2023-04-07T07:19:09;96564.06;;;7.02;43.44
44001;BME280;29660;42.892;24.710;2023-04-07T07:24:49;96742.75;;;8.49;43.12
44001;BME280;29660;42.892;24.710;2023-04-07T07:30:12;96480.44;;;7.14;40.33
44001;BME280;29660;42.892;24.710;2023-04-07T07:35:34;96781.16;;;9.44;40.52
44001;BME280;29660;42.892;24.710;2023-04-07T07:40:58;96727.91;;;9.44;38.35
44001;BME280;29660;42.892;24.710;2023-04-07T07:46:20;96733.97;;;9.69;37.84
44001;BME280;29660;42.892;24.710;2023-04-07T07:51:44;96529.50;;;8.57;36.21
44001;BME280;29660;42.892;24.710;2023-04-07T07:57:08;96485.47;;;8.03;36.18
44001;BME280;29660;42.892;24.710;2023-04-07T08:02:30;96667.38;;;9.12;38.74
44001;BME280;29660;42.892;24.710;2023-04-07T08:07:53;96771.50;;;10.29;37.42
44001;BME280;29660;42.892;24.710;2023-04-07T08:13:16;96731.75;;;9.76;38.42
44001;BME280;29660;42.892;24.710;2023-04-07T08:18:38;96486.56;;;8.02;38.77
44001;BME280;29660;42.892;24.710;2023-04-07T08:24:00;96770.13;;;10.13;38.62
44001;BME280;29660;42.892;24.710;2023-04-07T08:29:22;96518.84;;;9.00;37.72
44001;BME280;29660;42.892;24.710;2023-04-07T08:34:44;96733.53;;;10.37;35.36
44001;BME280;29660;42.892;24.710;2023-04-07T08:40:07;96529.25;;;9.16;35.92
44001;BME280;29660;42.892;24.710;2023-04-07T08:45:30;96615.47;;;10.18;36.02
44001;BME280;29660;42.892;24.710;2023-04-07T08:50:53;96744.41;;;11.70;35.94
44001;BME280;29660;42.892;24.710;2023-04-07T08:56:17;96717.66;;;11.06;35.09
44001;BME280;29660;42.892;24.710;2023-04-07T09:01:40;96694.50;;;11.15;35.72
44001;BME280;29660;42.892;24.710;2023-04-07T09:07:03;96720.22;;;11.11;36.09
44001;BME280;29660;42.892;24.710;2023-04-07T09:12:26;96300.59;;;8.26;34.73
44001;BME280;29660;42.892;24.710;2023-04-07T09:17:49;96757.00;;;11.00;35.45
44001;BME280;29660;42.892;24.710;2023-04-07T09:23:32;96514.13;;;9.63;34.91
44001;BME280;29660;42.892;24.710;2023-04-07T09:28:59;96772.81;;;11.66;34.60
44001;BME280;29660;42.892;24.710;2023-04-07T09:34:25;96607.66;;;10.68;34.69
44001;BME280;29660;42.892;24.710;2023-04-07T09:39:50;96644.13;;;10.59;35.83
44001;BME280;29660;42.892;24.710;2023-04-07T09:45:23;96535.31;;;9.54;35.72
44001;BME280;29660;42.892;24.710;2023-04-07T09:51:13;96539.16;;;9.29;36.10
44001;BME280;29660;42.892;24.710;2023-04-07T09:56:36;96520.84;;;9.08;36.07
44001;BME280;29660;42.892;24.710;2023-04-07T10:01:59;96746.94;;;10.65;35.88
44001;BME280;29660;42.892;24.710;2023-04-07T10:07:22;96521.19;;;9.21;36.54
44001;BME280;29660;42.892;24.710;2023-04-07T10:12:44;96803.19;;;10.82;36.52
44001;BME280;29660;42.892;24.710;2023-04-07T10:18:07;96562.53;;;9.13;36.48
44001;BME280;29660;42.892;24.710;2023-04-07T10:23:43;96621.22;;;9.41;37.02
44001;BME280;29660;42.892;24.710;2023-04-07T10:29:10;96477.84;;;8.64;36.51
44001;BME280;29660;42.892;24.710;2023-04-07T10:51:29;96561.69;;;9.37;36.93
44001;BME280;29660;42.892;24.710;2023-04-07T10:57:05;96518.19;;;9.08;36.93
44001;BME280;29660;42.892;24.710;2023-04-07T11:02:32;96819.13;;;10.87;36.84
44001;BME280;29660;42.892;24.710;2023-04-07T11:07:54;96585.09;;;9.34;37.03
44001;BME280;29660;42.892;24.710;2023-04-07T11:13:18;96809.25;;;10.69;37.53
44001;BME280;29660;42.892;24.710;2023-04-07T11:18:41;96806.31;;;10.70;38.30
44001;BME280;29660;42.892;24.710;2023-04-07T11:24:03;96546.00;;;8.97;38.34
44001;BME280;29660;42.892;24.710;2023-04-07T11:29:30;96582.59;;;9.05;37.79
44001;BME280;29660;42.892;24.710;2023-04-07T11:34:53;96824.16;;;10.37;38.69
44001;BME280;29660;42.892;24.710;2023-04-07T11:40:30;96305.03;;;7.02;38.45
44001;BME280;29660;42.892;24.710;2023-04-07T11:46:10;96695.53;;;9.37;38.90
44001;BME280;29660;42.892;24.710;2023-04-07T11:51:33;96743.31;;;9.66;38.85
44001;BME280;29660;42.892;24.710;2023-04-07T11:56:55;96578.69;;;8.55;39.61
44001;BME280;29660;42.892;24.710;2023-04-07T12:02:33;96548.06;;;8.39;40.04
44001;BME280;29660;42.892;24.710;2023-04-07T12:07:55;96809.06;;;9.90;40.48
44001;BME280;29660;42.892;24.710;2023-04-07T12:13:18;96571.34;;;8.47;40.10
44001;BME280;29660;42.892;24.710;2023-04-07T12:18:41;96783.22;;;10.09;40.31
44001;BME280;29660;42.892;24.710;2023-04-07T12:24:04;96572.59;;;8.97;39.09
44001;BME280;29660;42.892;24.710;2023-04-07T12:29:26;96620.34;;;9.26;38.69
44001;BME280;29660;42.892;24.710;2023-04-07T12:34:49;96605.03;;;9.37;39.00
44001;BME280;29660;42.892;24.710;2023-04-07T12:40:11;96740.38;;;10.43;38.72
44001;BME280;29660;42.892;24.710;2023-04-07T12:45:33;96820.44;;;11.03;38.84
44001;BME280;29660;42.892;24.710;2023-04-07T12:50:55;96652.50;;;9.87;40.31
44001;BME280;29660;42.892;24.710;2023-04-07T12:56:17;96674.03;;;10.23;39.87
44001;BME280;29660;42.892;24.710;2023-04-07T13:01:39;96770.25;;;11.05;39.05
44001;BME280;29660;42.892;24.710;2023-04-07T13:07:01;96730.84;;;10.70;39.46
44001;BME280;29660;42.892;24.710;2023-04-07T13:12:24;96735.94;;;10.52;40.34
44001;BME280;29660;42.892;24.710;2023-04-07T13:17:46;96571.75;;;9.40;40.54
44001;BME280;29660;42.892;24.710;2023-04-07T13:23:08;96864.63;;;11.10;42.25
44001;BME280;29660;42.892;24.710;2023-04-07T13:28:31;96637.84;;;9.51;43.03
44001;BME280;29660;42.892;24.710;2023-04-07T13:33:54;96603.72;;;9.53;41.77
44001;BME280;29660;42.892;24.710;2023-04-07T13:39:16;96621.88;;;9.51;41.64
44001;BME280;29660;42.892;24.710;2023-04-07T13:44:38;96894.78;;;11.10;40.94
44001;BME280;29660;42.892;24.710;2023-04-07T13:50:02;96591.59;;;8.67;41.79
44001;BME280;29660;42.892;24.710;2023-04-07T13:55:24;96912.72;;;10.53;42.68
44001;BME280;29660;42.892;24.710;2023-04-07T14:00:47;96915.69;;;10.51;43.63
44001;BME280;29660;42.892;24.710;2023-04-07T14:06:09;96738.56;;;9.44;43.31
44001;BME280;29660;42.892;24.710;2023-04-07T14:11:32;96827.00;;;9.84;44.19
44001;BME280;29660;42.892;24.710;2023-04-07T14:16:55;96908.00;;;10.02;44.92
44001;BME280;29660;42.892;24.710;2023-04-07T14:22:18;96845.34;;;9.62;44.92
44001;BME280;29660;42.892;24.710;2023-04-07T14:27:41;96933.59;;;10.03;45.90
44001;BME280;29660;42.892;24.710;2023-04-07T14:33:03;96937.34;;;10.21;45.58
44001;BME280;29660;42.892;24.710;2023-04-07T14:38:26;96886.44;;;9.79;46.12
44001;BME280;29660;42.892;24.710;2023-04-07T14:44:06;96670.63;;;8.27;46.46
44001;BME280;29660;42.892;24.710;2023-04-07T14:49:29;96911.53;;;9.73;46.98
44001;BME280;29660;42.892;24.710;2023-04-07T14:54:51;96680.53;;;7.87;47.86
44001;BME280;29660;42.892;24.710;2023-04-07T15:00:13;96928.03;;;9.46;48.63
44001;BME280;29660;42.892;24.710;2023-04-07T15:05:35;96926.72;;;9.15;49.89
44001;BME280;29660;42.892;24.710;2023-04-07T15:10:57;96717.69;;;7.82;51.29
44001;BME280;29660;42.892;24.710;2023-04-07T15:16:20;96944.75;;;9.23;50.54
44001;BME280;29660;42.892;24.710;2023-04-07T15:21:42;96748.84;;;7.66;50.94
44001;BME280;29660;42.892;24.710;2023-04-07T15:27:05;96980.72;;;8.81;51.44
44001;BME280;29660;42.892;24.710;2023-04-07T15:32:31;96901.03;;;8.16;52.67
44001;BME280;29660;42.892;24.710;2023-04-07T15:37:54;96720.28;;;6.88;52.77
44001;BME280;29660;42.892;24.710;2023-04-07T15:43:16;96971.34;;;8.34;54.11
44001;BME280;29660;42.892;24.710;2023-04-07T15:48:38;96976.19;;;8.17;56.82
44001;BME280;29660;42.892;24.710;2023-04-07T15:54:01;97021.31;;;8.32;59.05
44001;BME280;29660;42.892;24.710;2023-04-07T15:59:23;96932.84;;;7.51;61.79
44001;BME280;29660;42.892;24.710;2023-04-07T16:04:46;97005.22;;;7.87;62.14
44001;BME280;29660;42.892;24.710;2023-04-07T16:10:09;96796.88;;;6.28;66.78
44001;BME280;29660;42.892;24.710;2023-04-07T16:15:32;96799.25;;;6.14;68.07
44001;BME280;29660;42.892;24.710;2023-04-07T16:21:01;96982.72;;;7.29;69.61
44001;BME280;29660;42.892;24.710;2023-04-07T16:26:25;96841.91;;;6.28;68.59
44001;BME280;29660;42.892;24.710;2023-04-07T16:31:47;96842.69;;;6.24;70.40
44001;BME280;29660;42.892;24.710;2023-04-07T16:37:10;96951.41;;;6.70;71.70
44001;BME280;29660;42.892;24.710;2023-04-07T16:42:32;97112.75;;;7.65;72.49
44001;BME280;29660;42.892;24.710;2023-04-07T16:47:55;97053.81;;;7.27;73.10
44001;BME280;29660;42.892;24.710;2023-04-07T16:53:17;96873.34;;;5.99;73.82
44001;BME280;29660;42.892;24.710;2023-04-07T16:58:42;97116.97;;;7.50;73.97
44001;BME280;29660;42.892;24.710;2023-04-07T17:04:04;97088.81;;;7.19;72.90
44001;BME280;29660;42.892;24.710;2023-04-07T17:09:27;96854.94;;;5.62;73.12
44001;BME280;29660;42.892;24.710;2023-04-07T17:15:08;96816.47;;;5.39;73.78
44001;BME280;29660;42.892;24.710;2023-04-07T17:20:30;96876.88;;;5.62;75.29
44001;BME280;29660;42.892;24.710;2023-04-07T17:25:52;96815.31;;;5.20;75.74
44001;BME280;29660;42.892;24.710;2023-04-07T17:31:15;96895.13;;;5.64;75.65
44001;BME280;29660;42.892;24.710;2023-04-07T17:36:37;97093.50;;;6.81;76.37
44001;BME280;29660;42.892;24.710;2023-04-07T17:41:59;97050.91;;;6.40;76.84
44001;BME280;29660;42.892;24.710;2023-04-07T17:47:21;97097.38;;;6.63;77.43
44001;BME280;29660;42.892;24.710;2023-04-07T17:52:44;96939.81;;;5.55;76.79
44001;BME280;29660;42.892;24.710;2023-04-07T17:58:06;97200.75;;;7.16;78.99
44001;BME280;29660;42.892;24.710;2023-04-07T18:03:29;96936.78;;;5.36;77.12
44001;BME280;29660;42.892;24.710;2023-04-07T18:08:51;97219.81;;;7.07;81.26
44001;BME280;29660;42.892;24.710;2023-04-07T18:14:13;97177.72;;;6.69;79.86
44001;BME280;29660;42.892;24.710;2023-04-07T18:19:35;96828.47;;;4.40;79.82
44001;BME280;29660;42.892;24.710;2023-04-07T18:24:58;97139.34;;;6.29;82.36
44001;BME280;29660;42.892;24.710;2023-04-07T18:30:21;96985.50;;;5.13;85.82
44001;BME280;29660;42.892;24.710;2023-04-07T18:35:44;97243.41;;;6.61;87.84
44001;BME280;29660;42.892;24.710;2023-04-07T18:41:08;97170.44;;;6.06;87.22
44001;BME280;29660;42.892;24.710;2023-04-07T18:46:32;97184.94;;;5.99;90.24
44001;BME280;29660;42.892;24.710;2023-04-07T18:51:54;97192.69;;;6.10;90.32
44001;BME280;29660;42.892;24.710;2023-04-07T18:57:16;96997.31;;;4.74;90.88
44001;BME280;29660;42.892;24.710;2023-04-07T19:02:38;97266.97;;;6.26;93.71
44001;BME280;29660;42.892;24.710;2023-04-07T19:08:05;97209.97;;;5.91;92.76
44001;BME280;29660;42.892;24.710;2023-04-07T19:13:27;96955.06;;;4.25;90.79
44001;BME280;29660;42.892;24.710;2023-04-07T19:18:50;97283.84;;;6.20;91.92
44001;BME280;29660;42.892;24.710;2023-04-07T19:24:15;97053.84;;;4.73;94.64
44001;BME280;29660;42.892;24.710;2023-04-07T19:29:37;96964.94;;;4.12;92.39
44001;BME280;29660;42.892;24.710;2023-04-07T19:34:59;97245.50;;;5.95;92.44
44001;BME280;29660;42.892;24.710;2023-04-07T19:40:22;97021.41;;;4.55;92.47
44001;BME280;29660;42.892;24.710;2023-04-07T19:45:46;97207.47;;;5.79;92.46
44001;BME280;29660;42.892;24.710;2023-04-07T19:51:08;97212.38;;;5.93;90.49
44001;BME280;29660;42.892;24.710;2023-04-07T19:56:31;97153.72;;;5.47;94.42
44001;BME280;29660;42.892;24.710;2023-04-07T20:01:53;97246.00;;;5.92;96.90
44001;BME280;29660;42.892;24.710;2023-04-07T20:07:15;97097.59;;;4.90;97.17
44001;BME280;29660;42.892;24.710;2023-04-07T20:12:38;97192.25;;;5.64;96.50
44001;BME280;29660;42.892;24.710;2023-04-07T20:18:00;97173.13;;;5.57;96.54
44001;BME280;29660;42.892;24.710;2023-04-07T20:23:22;97172.28;;;5.52;94.80
44001;BME280;29660;42.892;24.710;2023-04-07T20:28:44;97090.00;;;4.94;94.56
44001;BME280;29660;42.892;24.710;2023-04-07T20:34:06;97148.53;;;5.30;94.89
44001;BME280;29660;42.892;24.710;2023-04-07T20:39:29;97184.28;;;5.59;94.39
44001;BME280;29660;42.892;24.710;2023-04-07T20:44:51;97158.66;;;5.38;93.93
44001;BME280;29660;42.892;24.710;2023-04-07T20:50:19;97181.66;;;5.37;95.79
44001;BME280;29660;42.892;24.710;2023-04-07T20:55:42;97178.31;;;5.20;99.08
44001;BME280;29660;42.892;24.710;2023-04-07T21:01:04;97029.47;;;4.22;99.82
44001;BME280;29660;42.892;24.710;2023-04-07T21:06:26;97158.47;;;4.96;100.00
44001;BME280;29660;42.892;24.710;2023-04-07T21:11:48;97247.66;;;5.49;100.00
44001;BME280;29660;42.892;24.710;2023-04-07T21:17:10;96935.88;;;3.30;100.00
44001;BME280;29660;42.892;24.710;2023-04-07T21:22:33;97224.09;;;5.26;100.00
44001;BME280;29660;42.892;24.710;2023-04-07T21:27:55;96989.53;;;3.57;100.00
44001;BME280;29660;42.892;24.710;2023-04-07T21:33:17;97152.66;;;4.55;100.00
44001;BME280;29660;42.892;24.710;2023-04-07T21:38:40;96920.34;;;3.11;100.00
44001;BME280;29660;42.892;24.710;2023-04-07T21:44:05;96901.50;;;2.86;100.00
44001;BME280;29660;42.892;24.710;2023-04-07T21:49:28;96928.66;;;3.03;100.00
44001;BME280;29660;42.892;24.710;2023-04-07T21:54:50;97186.88;;;4.66;100.00
44001;BME280;29660;42.892;24.710;2023-04-07T22:00:12;97167.41;;;4.51;100.00
44001;BME280;29660;42.892;24.710;2023-04-07T22:05:38;97206.50;;;4.71;100.00
44001;BME280;29660;42.892;24.710;2023-04-07T22:11:00;96945.47;;;3.02;100.00
44001;BME280;29660;42.892;24.710;2023-04-07T22:16:22;97242.91;;;4.85;100.00
44001;BME280;29660;42.892;24.710;2023-04-07T22:21:44;96939.47;;;2.90;100.00
44001;BME280;29660;42.892;24.710;2023-04-07T22:27:08;97229.44;;;4.87;100.00
44001;BME280;29660;42.892;24.710;2023-04-07T22:32:30;97176.63;;;4.48;100.00
44001;BME280;29660;42.892;24.710;2023-04-07T22:37:52;97082.72;;;3.80;100.00
44001;BME280;29660;42.892;24.710;2023-04-07T22:43:14;96949.47;;;3.05;100.00
44001;BME280;29660;42.892;24.710;2023-04-07T22:48:37;97142.97;;;4.22;100.00
44001;BME280;29660;42.892;24.710;2023-04-07T22:53:59;96969.50;;;3.06;100.00
44001;BME280;29660;42.892;24.710;2023-04-07T22:59:21;96946.59;;;2.89;100.00
44001;BME280;29660;42.892;24.710;2023-04-07T23:04:43;97230.84;;;4.73;100.00
44001;BME280;29660;42.892;24.710;2023-04-07T23:10:06;97253.63;;;4.79;100.00
44001;BME280;29660;42.892;24.710;2023-04-07T23:15:28;97172.03;;;4.60;100.00
44001;BME280;29660;42.892;24.710;2023-04-07T23:20:50;97194.28;;;4.64;100.00
44001;BME280;29660;42.892;24.710;2023-04-07T23:26:13;97137.97;;;4.42;100.00
44001;BME280;29660;42.892;24.710;2023-04-07T23:31:35;97224.78;;;4.94;100.00
44001;BME280;29660;42.892;24.710;2023-04-07T23:36:57;96923.44;;;3.08;100.00
44001;BME280;29660;42.892;24.710;2023-04-07T23:42:19;97120.88;;;4.28;100.00
44001;BME280;29660;42.892;24.710;2023-04-07T23:47:41;96841.75;;;2.53;100.00
44001;BME280;29660;42.892;24.710;2023-04-07T23:53:03;97096.75;;;4.02;100.00
44001;BME280;29660;42.892;24.710;2023-04-07T23:58:44;96944.53;;;3.08;100.00
